createdAt,value
2018-11-07T00:02:01.204Z,61.00
2018-11-07T00:04:55.332Z,59.60
2018-11-07T00:07:48.983Z,60.10
2018-11-07T00:11:01.212Z,60.00
2018-11-07T00:13:55.132Z,60.30
2018-11-07T00:16:48.960Z,60.80
2018-11-07T00:19:42.562Z,60.80
2018-11-07T00:22:36.613Z,60.80
2018-11-07T00:25:30.405Z,61.20
2018-11-07T00:28:24.467Z,60.60
2018-11-07T00:31:18.347Z,59.90
2018-11-07T00:34:13.561Z,60.00
2018-11-07T00:37:06.942Z,60.40
2018-11-07T00:40:00.221Z,60.40
2018-11-07T00:42:54.261Z,60.50
2018-11-07T00:45:47.727Z,60.70
2018-11-07T00:48:41.432Z,61.00
2018-11-07T00:51:35.171Z,59.60
2018-11-07T00:54:29.149Z,60.80
2018-11-07T00:57:25.181Z,59.90
2018-11-07T01:00:23.853Z,60.50
2018-11-07T01:03:17.767Z,60.20
2018-11-07T01:06:14.535Z,60.20
2018-11-07T01:09:08.397Z,59.80
2018-11-07T01:12:01.832Z,60.80
2018-11-07T01:14:55.606Z,59.80
2018-11-07T01:17:49.071Z,59.90
2018-11-07T01:20:42.746Z,60.10
2018-11-07T01:23:36.830Z,60.00
2018-11-07T01:26:30.271Z,60.00
2018-11-07T01:29:24.300Z,61.10
2018-11-07T01:32:18.131Z,59.30
2018-11-07T01:35:12.238Z,60.10
2018-11-07T01:38:06.304Z,61.70
2018-11-07T01:40:59.913Z,61.10
2018-11-07T01:43:53.678Z,60.00
2018-11-07T01:46:47.936Z,61.60
2018-11-07T01:49:42.120Z,61.00
2018-11-07T01:52:38.966Z,60.10
2018-11-07T01:55:33.556Z,60.40
2018-11-07T01:58:27.844Z,59.60
2018-11-07T02:01:21.769Z,60.30
2018-11-07T02:04:15.496Z,59.80
2018-11-07T02:07:08.747Z,59.20
2018-11-07T02:10:03.657Z,60.20
2018-11-07T02:12:57.740Z,59.00
2018-11-07T02:15:51.713Z,60.10
2018-11-07T02:18:46.354Z,59.70
2018-11-07T02:21:39.983Z,59.80
2018-11-07T02:24:33.448Z,59.50
2018-11-07T02:27:27.127Z,59.70
2018-11-07T02:30:22.843Z,59.70
2018-11-07T02:33:18.967Z,59.10
2018-11-07T02:36:12.955Z,58.70
2018-11-07T02:39:06.852Z,59.30
2018-11-07T02:42:03.928Z,59.50
2018-11-07T02:44:57.754Z,59.80
2018-11-07T02:47:51.432Z,59.60
2018-11-07T02:50:47.141Z,60.10
2018-11-07T02:53:40.804Z,59.10
2018-11-07T02:56:56.737Z,58.80
2018-11-07T02:59:28.462Z,59.40
2018-11-07T03:02:22.341Z,59.50
2018-11-07T03:05:19.664Z,59.30
2018-11-07T03:08:10.513Z,59.80
2018-11-07T03:11:08.658Z,59.00
2018-11-07T03:14:02.352Z,59.40
2018-11-07T03:16:56.236Z,59.70
2018-11-07T03:19:51.536Z,60.30
2018-11-07T03:22:45.617Z,60.20
2018-11-07T03:25:39.195Z,60.30
2018-11-07T03:28:37.878Z,60.10
2018-11-07T03:31:31.753Z,60.10
2018-11-07T03:34:30.339Z,59.80
2018-11-07T03:37:24.930Z,59.90
2018-11-07T03:40:18.716Z,59.90
2018-11-07T03:43:12.584Z,59.80
2018-11-07T03:46:06.382Z,60.00
2018-11-07T03:49:00.337Z,59.70
2018-11-07T03:51:54.313Z,59.60
2018-11-07T03:54:48.294Z,59.90
2018-11-07T03:57:44.981Z,59.40
2018-11-07T04:00:41.169Z,59.70
2018-11-07T04:03:35.143Z,59.60
2018-11-07T04:06:29.022Z,58.70
2018-11-07T04:09:23.101Z,58.80
2018-11-07T04:12:16.571Z,59.40
2018-11-07T04:15:15.326Z,59.70
2018-11-07T04:18:05.028Z,59.50
2018-11-07T04:21:00.046Z,59.60
2018-11-07T04:24:01.705Z,59.60
2018-11-07T04:26:56.292Z,59.40
2018-11-07T04:29:49.964Z,59.60
2018-11-07T04:32:44.044Z,60.10
2018-11-07T04:35:37.611Z,60.10
2018-11-07T04:38:31.499Z,60.00
2018-11-07T04:41:25.264Z,60.20
2018-11-07T04:44:18.941Z,60.30
2018-11-07T04:47:13.026Z,60.10
2018-11-07T04:50:06.585Z,60.50
2018-11-07T04:53:00.569Z,60.60
2018-11-07T04:55:54.136Z,60.60
2018-11-07T04:58:48.522Z,60.40
2018-11-07T05:01:44.649Z,60.40
2018-11-07T05:04:39.145Z,60.70
2018-11-07T05:07:35.839Z,60.60
2018-11-07T05:10:29.765Z,60.70
2018-11-07T05:13:23.640Z,60.80
2018-11-07T05:16:24.787Z,60.70
2018-11-07T05:19:27.360Z,60.60
2018-11-07T05:22:13.152Z,60.60
2018-11-07T05:25:07.032Z,61.10
2018-11-07T05:28:02.853Z,60.60
2018-11-07T05:30:57.343Z,61.10
2018-11-07T05:33:51.223Z,60.10
2018-11-07T05:36:48.372Z,60.10
2018-11-07T05:39:42.046Z,60.50
2018-11-07T05:42:36.433Z,60.70
2018-11-07T05:45:29.733Z,60.50
2018-11-07T05:48:23.469Z,60.40
2018-11-07T05:51:17.139Z,60.50
2018-11-07T05:54:12.758Z,60.60
2018-11-07T05:57:06.839Z,60.60
2018-11-07T06:00:00.920Z,60.60
2018-11-07T06:02:55.716Z,60.60
2018-11-07T06:05:49.903Z,60.80
2018-11-07T06:08:45.421Z,61.00
2018-11-07T06:11:41.543Z,61.00
2018-11-07T06:14:35.729Z,61.00
2018-11-07T06:17:29.602Z,61.00
2018-11-07T06:20:23.069Z,61.00
2018-11-07T06:23:16.747Z,61.10
2018-11-07T06:26:11.334Z,61.10
2018-11-07T06:29:05.007Z,61.20
2018-11-07T06:32:00.317Z,61.30
2018-11-07T06:34:59.573Z,61.20
2018-11-07T06:37:50.324Z,61.10
2018-11-07T06:40:44.111Z,61.30
2018-11-07T06:43:39.713Z,61.60
2018-11-07T06:46:33.700Z,61.20
2018-11-07T06:49:27.549Z,62.10
2018-11-07T06:52:22.392Z,61.60
2018-11-07T06:55:16.277Z,61.70
2018-11-07T06:58:10.332Z,61.60
2018-11-07T07:01:04.098Z,61.10
2018-11-07T07:03:58.513Z,61.30
2018-11-07T07:06:52.785Z,61.60
2018-11-07T07:09:46.649Z,61.30
2018-11-07T07:12:41.650Z,61.10
2018-11-07T07:15:35.017Z,61.20
2018-11-07T07:18:29.016Z,60.70
2018-11-07T07:21:25.562Z,61.00
2018-11-07T07:24:19.202Z,60.80
2018-11-07T07:27:13.273Z,60.70
2018-11-07T07:30:07.246Z,60.80
2018-11-07T07:33:02.740Z,60.90
2018-11-07T07:35:56.638Z,61.10
2018-11-07T07:38:50.206Z,61.00
2018-11-07T07:41:46.853Z,60.50
2018-11-07T07:44:39.696Z,60.80
2018-11-07T07:47:35.816Z,61.30
2018-11-07T07:50:29.153Z,60.70
2018-11-07T07:53:22.681Z,60.60
2018-11-07T07:56:16.769Z,61.00
2018-11-07T07:59:10.738Z,61.20
2018-11-07T08:02:04.517Z,61.30
2018-11-07T08:04:58.288Z,61.50
2018-11-07T08:07:52.266Z,61.00
2018-11-07T08:10:48.290Z,61.20
2018-11-07T08:13:42.296Z,61.40
2018-11-07T08:16:46.086Z,61.30
2018-11-07T08:19:43.539Z,61.10
2018-11-07T08:22:37.007Z,61.20
2018-11-07T08:25:30.781Z,61.00
2018-11-07T08:28:24.764Z,61.00
2018-11-07T08:31:19.765Z,61.00
2018-11-07T08:34:13.214Z,61.10
2018-11-07T08:37:06.805Z,61.40
2018-11-07T08:40:00.264Z,61.30
2018-11-07T08:42:54.039Z,61.60
2018-11-07T08:45:49.048Z,61.70
2018-11-07T08:48:44.968Z,61.70
2018-11-07T08:51:39.869Z,62.10
2018-11-07T08:54:33.671Z,62.10
2018-11-07T08:57:27.323Z,62.20
2018-11-07T09:00:27.333Z,62.20
2018-11-07T09:03:23.977Z,61.50
2018-11-07T09:06:17.952Z,61.60
2018-11-07T09:09:14.323Z,62.20
2018-11-07T09:12:08.088Z,62.60
2018-11-07T09:15:02.028Z,62.10
2018-11-07T09:17:55.508Z,61.80
2018-11-07T09:20:51.028Z,61.70
2018-11-07T09:23:44.999Z,62.10
2018-11-07T09:26:38.568Z,62.20
2018-11-07T09:29:32.343Z,62.00
2018-11-07T09:32:26.422Z,62.50
2018-11-07T09:35:22.245Z,62.70
2018-11-07T09:38:16.209Z,62.40
2018-11-07T09:41:09.799Z,62.70
2018-11-07T09:44:03.671Z,63.30
2018-11-07T09:46:57.239Z,62.80
2018-11-07T09:49:52.139Z,62.80
2018-11-07T09:52:46.937Z,62.80
2018-11-07T09:55:40.832Z,62.80
2018-11-07T09:58:34.734Z,62.80
2018-11-07T10:01:28.666Z,62.70
2018-11-07T10:04:24.384Z,62.60
2018-11-07T10:07:18.267Z,62.10
2018-11-07T10:10:15.684Z,62.20
2018-11-07T10:13:09.395Z,62.40
2018-11-07T10:16:03.270Z,62.80
2018-11-07T10:18:56.866Z,62.80
2018-11-07T10:21:50.562Z,63.10
2018-11-07T10:24:43.980Z,63.10
2018-11-07T10:27:38.240Z,63.10
2018-11-07T10:30:31.908Z,63.20
2018-11-07T10:33:27.451Z,63.20
2018-11-07T10:36:21.124Z,63.20
2018-11-07T10:39:16.125Z,63.30
2018-11-07T10:42:10.625Z,63.30
2018-11-07T10:45:04.701Z,63.30
2018-11-07T10:47:58.882Z,63.40
2018-11-07T10:50:52.858Z,63.30
2018-11-07T10:53:47.656Z,63.60
2018-11-07T10:56:41.459Z,63.50
2018-11-07T10:59:35.410Z,63.50
2018-11-07T11:02:46.192Z,63.60
2018-11-07T11:05:39.657Z,63.60
2018-11-07T11:08:33.533Z,63.80
2018-11-07T11:11:29.826Z,63.70
2018-11-07T11:14:24.862Z,63.90
2018-11-07T11:17:18.466Z,63.90
2018-11-07T11:20:14.849Z,64.00
2018-11-07T11:23:10.293Z,64.20
2018-11-07T11:26:03.848Z,64.10
2018-11-07T11:28:57.723Z,64.00
2018-11-07T11:31:51.498Z,64.30
2018-11-07T11:34:45.358Z,64.10
2018-11-07T11:37:40.171Z,64.30
2018-11-07T11:40:34.718Z,64.60
2018-11-07T11:43:28.950Z,64.70
2018-11-07T11:46:22.941Z,64.40
2018-11-07T11:49:16.859Z,64.60
2018-11-07T11:52:12.319Z,64.70
2018-11-07T11:55:05.990Z,64.40
2018-11-07T11:57:59.767Z,64.60
2018-11-07T12:00:53.844Z,64.40
2018-11-07T12:03:47.927Z,64.50
2018-11-07T12:06:43.351Z,64.80
2018-11-07T12:09:37.117Z,64.80
2018-11-07T12:12:31.909Z,64.90
2018-11-07T12:15:27.041Z,64.80
2018-11-07T12:18:21.099Z,64.70
2018-11-07T12:21:15.029Z,64.80
2018-11-07T12:24:09.064Z,65.00
2018-11-07T12:27:03.160Z,64.60
2018-11-07T12:29:56.708Z,64.80
2018-11-07T12:32:51.914Z,65.00
2018-11-07T12:35:52.827Z,64.80
2018-11-07T12:38:43.458Z,64.80
2018-11-07T12:41:37.232Z,65.00
2018-11-07T12:44:30.899Z,64.80
2018-11-07T12:47:25.804Z,64.70
2018-11-07T12:50:21.236Z,64.80
2018-11-07T12:53:15.499Z,64.80
2018-11-07T12:56:10.706Z,64.80
2018-11-07T12:59:04.480Z,64.70
2018-11-07T13:02:01.225Z,65.10
2018-11-07T13:04:54.898Z,64.90
2018-11-07T13:07:53.793Z,65.40
2018-11-07T13:10:43.976Z,65.40
2018-11-07T13:13:37.550Z,65.40
2018-11-07T13:16:31.471Z,65.60
2018-11-07T13:19:25.393Z,65.50
2018-11-07T13:22:19.960Z,65.60
2018-11-07T13:25:15.819Z,65.50
2018-11-07T13:28:11.578Z,65.70
2018-11-07T13:31:05.208Z,65.40
2018-11-07T13:33:58.673Z,65.60
2018-11-07T13:36:52.568Z,65.50
2018-11-07T13:39:46.430Z,65.70
2018-11-07T13:42:40.812Z,65.40
2018-11-07T13:45:34.898Z,65.70
2018-11-07T13:48:28.773Z,65.50
2018-11-07T13:51:22.140Z,65.60
2018-11-07T13:54:16.016Z,65.50
2018-11-07T13:57:10.255Z,65.60
2018-11-07T14:00:08.886Z,65.50
2018-11-07T14:03:02.559Z,65.20
2018-11-07T14:05:57.591Z,65.20
2018-11-07T14:08:51.232Z,65.30
2018-11-07T14:11:45.108Z,65.10
2018-11-07T14:14:38.891Z,65.40
2018-11-07T14:17:32.736Z,65.30
2018-11-07T14:20:26.439Z,65.30
2018-11-07T14:23:20.828Z,65.50
2018-11-07T14:26:14.759Z,65.30
2018-11-07T14:29:08.881Z,65.30
2018-11-07T14:32:04.496Z,65.50
2018-11-07T14:34:58.270Z,65.40
2018-11-07T14:37:56.857Z,65.70
2018-11-07T14:40:52.268Z,65.30
2018-11-07T14:43:48.012Z,65.10
2018-11-07T14:46:44.630Z,65.30
2018-11-07T14:49:38.608Z,65.20
2018-11-07T14:52:32.291Z,65.20
2018-11-07T14:55:25.848Z,65.20
2018-11-07T14:58:20.445Z,65.30
2018-11-07T15:01:14.218Z,65.30
2018-11-07T15:04:11.256Z,65.30
2018-11-07T15:07:04.937Z,65.20
2018-11-07T15:10:01.418Z,65.30
2018-11-07T15:12:55.166Z,63.70
2018-11-07T15:15:50.047Z,63.70
2018-11-07T15:18:43.925Z,64.80
2018-11-07T15:21:39.745Z,65.00
2018-11-07T15:24:33.716Z,65.00
2018-11-07T15:27:27.397Z,64.70
2018-11-07T15:30:26.105Z,64.80
2018-11-07T15:33:19.962Z,64.50
2018-11-07T15:36:14.885Z,64.50
2018-11-07T15:39:10.227Z,65.00
2018-11-07T15:42:03.742Z,64.10
2018-11-07T15:44:57.412Z,64.60
2018-11-07T15:47:50.690Z,65.20
2018-11-07T15:51:00.937Z,64.00
2018-11-07T15:53:54.612Z,63.60
2018-11-07T15:56:48.640Z,64.10
2018-11-07T15:59:42.669Z,63.50
2018-11-07T16:02:36.555Z,64.00
2018-11-07T16:05:30.111Z,63.80
2018-11-07T16:08:23.988Z,63.00
2018-11-07T16:11:18.377Z,63.50
2018-11-07T16:14:16.883Z,63.20
2018-11-07T16:17:13.630Z,63.30
2018-11-07T16:20:04.748Z,63.60
2018-11-07T16:23:00.084Z,63.10
2018-11-07T16:25:54.056Z,63.60
2018-11-07T16:28:47.581Z,64.40
2018-11-07T16:31:41.678Z,64.80
2018-11-07T16:34:35.740Z,64.70
2018-11-07T16:37:29.525Z,64.50
2018-11-07T16:40:23.145Z,64.20
2018-11-07T16:43:17.059Z,64.70
2018-11-07T16:46:20.088Z,64.70
2018-11-07T16:49:14.034Z,65.10
2018-11-07T16:52:08.519Z,65.00
2018-11-07T16:55:02.290Z,64.90
2018-11-07T16:57:56.943Z,64.90
2018-11-07T17:00:50.663Z,64.10
2018-11-07T17:03:44.330Z,64.70
2018-11-07T17:06:37.697Z,64.70
2018-11-07T17:09:33.115Z,65.10
2018-11-07T17:12:26.985Z,64.70
2018-11-07T17:15:24.488Z,64.40
2018-11-07T17:18:14.636Z,64.20
2018-11-07T17:21:08.203Z,64.20
2018-11-07T17:24:01.828Z,64.40
2018-11-07T17:26:55.657Z,64.10
2018-11-07T17:29:49.320Z,64.50
2018-11-07T17:32:42.788Z,64.00
2018-11-07T17:35:36.357Z,64.50
2018-11-07T17:38:29.746Z,64.10
2018-11-07T17:41:23.947Z,64.40
2018-11-07T17:44:17.882Z,64.30
2018-11-07T17:47:11.972Z,63.90
2018-11-07T17:50:05.838Z,63.80
2018-11-07T17:53:01.047Z,63.70
2018-11-07T17:55:54.687Z,63.60
2018-11-07T17:58:54.498Z,63.70
2018-11-07T18:01:48.622Z,63.10
2018-11-07T18:04:42.696Z,62.80
2018-11-07T18:07:36.263Z,63.20
2018-11-07T18:10:29.867Z,62.80
2018-11-07T18:13:24.339Z,63.30
2018-11-07T18:16:21.187Z,63.50
2018-11-07T18:19:15.378Z,63.40
2018-11-07T18:22:09.340Z,63.70
2018-11-07T18:25:03.413Z,64.00
2018-11-07T18:27:57.197Z,63.50
2018-11-07T18:30:51.173Z,62.90
2018-11-07T18:33:44.636Z,63.00
2018-11-07T18:36:38.304Z,63.30
2018-11-07T18:39:34.537Z,62.40
2018-11-07T18:42:28.412Z,63.10
2018-11-07T18:45:23.415Z,61.90
2018-11-07T18:48:17.215Z,62.70
2018-11-07T18:51:10.862Z,62.10
2018-11-07T18:54:04.898Z,62.70
2018-11-07T18:56:58.224Z,62.40
2018-11-07T18:59:52.286Z,62.30
2018-11-07T19:02:46.672Z,62.70
2018-11-07T19:05:40.242Z,62.60
2018-11-07T19:08:36.575Z,62.10
2018-11-07T19:11:30.453Z,62.40
2018-11-07T19:14:24.023Z,61.60
2018-11-07T19:17:17.778Z,62.20
2018-11-07T19:20:12.904Z,61.30
2018-11-07T19:23:06.571Z,61.80
2018-11-07T19:26:00.655Z,60.80
2018-11-07T19:28:54.634Z,60.30
2018-11-07T19:31:48.408Z,60.90
2018-11-07T19:34:42.562Z,60.10
2018-11-07T19:37:37.832Z,60.50
2018-11-07T19:40:31.776Z,61.00
2018-11-07T19:43:25.449Z,61.30
2018-11-07T19:46:19.132Z,60.90
2018-11-07T19:49:12.879Z,59.70
2018-11-07T19:52:06.673Z,59.90
2018-11-07T19:55:00.875Z,59.90
2018-11-07T19:58:04.275Z,59.90
2018-11-07T20:00:58.158Z,59.10
2018-11-07T20:03:54.974Z,60.90
2018-11-07T20:06:51.717Z,59.60
2018-11-07T20:09:45.182Z,59.50
2018-11-07T20:12:38.956Z,60.00
2018-11-07T20:15:32.630Z,59.90
2018-11-07T20:18:26.210Z,58.60
2018-11-07T20:21:19.975Z,60.60
2018-11-07T20:24:13.850Z,59.70
2018-11-07T20:27:07.826Z,60.10
2018-11-07T20:30:02.012Z,59.20
2018-11-07T20:32:57.833Z,59.30
2018-11-07T20:35:52.226Z,57.70
2018-11-07T20:38:45.789Z,58.20
2018-11-07T20:41:39.574Z,58.40
2018-11-07T20:44:33.753Z,59.40
2018-11-07T20:47:27.827Z,58.90
2018-11-07T20:50:22.974Z,58.40
2018-11-07T20:53:16.621Z,58.90
2018-11-07T20:56:10.790Z,57.90
2018-11-07T20:59:04.578Z,57.30
2018-11-07T21:01:58.660Z,57.60
2018-11-07T21:04:52.211Z,57.30
2018-11-07T21:07:46.295Z,56.60
2018-11-07T21:10:40.373Z,57.10
2018-11-07T21:13:34.353Z,56.40
2018-11-07T21:16:28.751Z,56.10
2018-11-07T21:19:22.311Z,56.10
2018-11-07T21:22:16.607Z,56.80
2018-11-07T21:25:10.678Z,57.00
2018-11-07T21:28:06.092Z,56.10
2018-11-07T21:31:01.423Z,56.50
2018-11-07T21:33:55.587Z,57.80
2018-11-07T21:36:51.219Z,57.00
2018-11-07T21:39:45.911Z,57.20
2018-11-07T21:42:39.497Z,56.30
2018-11-07T21:45:33.450Z,57.10
2018-11-07T21:48:27.435Z,56.30
2018-11-07T21:51:21.204Z,56.30
2018-11-07T21:54:14.931Z,55.90
2018-11-07T21:57:08.438Z,57.20
2018-11-07T22:00:02.204Z,55.60
2018-11-07T22:02:56.211Z,55.70
2018-11-07T22:05:50.784Z,55.20
2018-11-07T22:08:45.023Z,55.80
2018-11-07T22:11:38.620Z,55.10
2018-11-07T22:14:32.517Z,55.70
2018-11-07T22:17:26.394Z,56.60
2018-11-07T22:20:26.924Z,56.20
2018-11-07T22:23:22.643Z,55.20
2018-11-07T22:26:16.132Z,55.40
2018-11-07T22:29:10.192Z,55.40
2018-11-07T22:32:04.171Z,55.60
2018-11-07T22:34:59.066Z,55.60
2018-11-07T22:37:53.766Z,55.60
2018-11-07T22:40:49.177Z,56.10
2018-11-07T22:43:43.159Z,55.60
2018-11-07T22:46:36.829Z,56.10
2018-11-07T22:49:30.401Z,55.60
2018-11-07T22:52:25.196Z,55.70
2018-11-07T22:55:19.073Z,55.40
2018-11-07T22:58:12.745Z,55.80
2018-11-07T23:01:26.179Z,55.60
2018-11-07T23:04:20.054Z,55.80
2018-11-07T23:07:14.144Z,55.40
2018-11-07T23:10:09.810Z,56.80
2018-11-07T23:13:03.527Z,56.30
2018-11-07T23:15:59.147Z,57.70
2018-11-07T23:18:53.229Z,57.50
2018-11-07T23:21:47.210Z,57.90
2018-11-07T23:24:41.091Z,56.90
2018-11-07T23:27:38.235Z,57.80
2018-11-07T23:30:31.988Z,57.50
2018-11-07T23:33:25.577Z,57.30
2018-11-07T23:36:19.148Z,56.70
2018-11-07T23:39:13.635Z,56.40
2018-11-07T23:42:07.923Z,56.10
2018-11-07T23:45:01.903Z,56.00
2018-11-07T23:47:55.779Z,57.50
2018-11-07T23:50:49.551Z,57.20
2018-11-07T23:53:43.334Z,57.00
2018-11-07T23:56:38.429Z,56.30
2018-11-07T23:59:32.327Z,56.90
